createdAt,value
2022-12-25T00:04:25.925Z,7.10
2022-12-25T00:09:36.403Z,7.09
2022-12-25T00:14:42.306Z,7.07
2022-12-25T00:19:48.286Z,7.07
2022-12-25T00:24:55.263Z,7.04
2022-12-25T00:30:00.199Z,7.04
2022-12-25T00:35:04.704Z,7.05
2022-12-25T00:40:13.099Z,7.02
2022-12-25T00:45:19.607Z,6.97
2022-12-25T00:50:24.875Z,6.94
2022-12-25T00:55:36.861Z,6.86
2022-12-25T01:00:53.193Z,6.77
2022-12-25T01:06:03.548Z,6.68
2022-12-25T01:11:11.638Z,6.63
2022-12-25T01:16:16.502Z,6.58
2022-12-25T01:21:24.534Z,6.54
2022-12-25T01:26:33.557Z,6.47
2022-12-25T01:31:42.475Z,6.43
2022-12-25T01:36:47.862Z,6.37
2022-12-25T01:42:01.541Z,6.32
2022-12-25T01:47:17.007Z,6.30
2022-12-25T01:52:28.126Z,6.23
2022-12-25T01:57:40.947Z,6.20
2022-12-25T02:02:47.627Z,6.14
2022-12-25T02:07:55.045Z,6.11
2022-12-25T02:13:01.786Z,6.07
2022-12-25T02:18:14.565Z,6.03
2022-12-25T02:23:57.644Z,6.00
2022-12-25T02:29:14.385Z,5.98
2022-12-25T02:34:25.889Z,6.08
2022-12-25T02:39:56.304Z,6.30
2022-12-25T02:45:19.921Z,6.37
2022-12-25T02:50:50.546Z,6.32
2022-12-25T02:56:13.924Z,6.40
2022-12-25T03:01:40.549Z,6.48
2022-12-25T03:07:01.533Z,6.58
2022-12-25T03:12:12.402Z,6.69
2022-12-25T03:17:30.805Z,6.71
2022-12-25T03:22:57.671Z,6.59
2022-12-25T03:28:06.057Z,6.53
2022-12-25T03:33:43.892Z,6.51
2022-12-25T03:39:23.278Z,6.59
2022-12-25T03:44:55.527Z,6.63
2022-12-25T03:50:26.181Z,6.65
2022-12-25T03:55:48.330Z,6.71
2022-12-25T04:01:10.250Z,6.69
2022-12-25T04:06:36.908Z,6.61
2022-12-25T04:12:02.772Z,6.61
2022-12-25T04:17:24.727Z,6.61
2022-12-25T04:22:53.739Z,6.58
2022-12-25T04:28:22.500Z,6.56
2022-12-25T04:33:44.510Z,6.56
2022-12-25T04:39:06.906Z,6.54
2022-12-25T04:44:13.033Z,6.51
2022-12-25T04:49:27.222Z,6.62
2022-12-25T04:54:43.592Z,6.78
2022-12-25T04:59:55.422Z,6.82
2022-12-25T05:05:00.890Z,6.77
2022-12-25T05:10:09.464Z,6.72
2022-12-25T05:15:22.671Z,6.71
2022-12-25T05:20:40.170Z,6.69
2022-12-25T05:25:52.283Z,6.69
2022-12-25T05:31:06.426Z,6.69
2022-12-25T05:36:17.795Z,6.74
2022-12-25T05:41:34.201Z,6.74
2022-12-25T05:46:54.503Z,6.79
2022-12-25T05:52:01.607Z,6.89
2022-12-25T05:57:11.289Z,7.05
2022-12-25T06:02:19.640Z,7.16
2022-12-25T06:07:28.388Z,7.21
2022-12-25T06:12:38.423Z,7.27
2022-12-25T06:17:51.417Z,7.18
2022-12-25T06:22:59.942Z,7.13
2022-12-25T06:28:08.010Z,7.14
2022-12-25T06:33:12.469Z,7.22
2022-12-25T06:38:24.998Z,7.26
2022-12-25T06:43:34.386Z,7.23
2022-12-25T06:48:49.763Z,7.22
2022-12-25T06:54:04.408Z,7.29
2022-12-25T06:59:18.122Z,7.34
2022-12-25T07:04:29.174Z,7.38
2022-12-25T07:09:34.759Z,7.43
2022-12-25T07:14:51.485Z,7.49
2022-12-25T07:20:07.784Z,7.56
2022-12-25T07:25:14.537Z,7.61
2022-12-25T07:30:21.579Z,7.68
2022-12-25T07:35:27.951Z,7.74
2022-12-25T07:40:34.516Z,7.79
2022-12-25T07:45:41.646Z,7.84
2022-12-25T07:50:49.268Z,7.89
2022-12-25T07:56:25.181Z,8.06
2022-12-25T08:01:31.605Z,8.20
2022-12-25T08:06:37.110Z,8.27
2022-12-25T08:11:42.043Z,8.39
2022-12-25T08:16:55.446Z,8.45
2022-12-25T08:21:59.852Z,8.57
2022-12-25T08:27:06.722Z,8.67
2022-12-25T08:32:13.678Z,8.80
2022-12-25T08:37:18.056Z,8.96
2022-12-25T08:42:32.430Z,9.19
2022-12-25T08:47:48.194Z,9.35
2022-12-25T08:52:53.550Z,9.49
2022-12-25T08:57:57.748Z,9.71
2022-12-25T09:03:14.530Z,9.91
2022-12-25T09:08:48.712Z,10.06
2022-12-25T09:14:02.849Z,10.16
2022-12-25T09:19:23.372Z,10.34
2022-12-25T09:24:32.723Z,10.43
2022-12-25T09:29:42.653Z,10.50
2022-12-25T09:34:49.757Z,10.56
2022-12-25T09:39:56.518Z,10.73
2022-12-25T09:45:08.625Z,10.72
2022-12-25T09:50:21.161Z,10.79
2022-12-25T09:55:29.452Z,10.84
2022-12-25T10:00:43.586Z,10.91
2022-12-25T10:06:19.532Z,11.10
2022-12-25T10:11:36.735Z,11.29
2022-12-25T10:16:56.867Z,11.35
2022-12-25T10:22:13.525Z,11.33
2022-12-25T10:27:24.631Z,11.48
2022-12-25T10:32:35.427Z,11.62
2022-12-25T10:37:46.378Z,11.65
2022-12-25T10:42:54.791Z,11.72
2022-12-25T10:48:07.725Z,11.87
2022-12-25T10:53:25.918Z,11.93
2022-12-25T10:58:39.394Z,11.90
2022-12-25T11:04:02.443Z,11.93
2022-12-25T11:09:20.612Z,11.99
2022-12-25T11:14:26.915Z,12.02
2022-12-25T11:19:35.078Z,12.00
2022-12-25T11:24:52.356Z,11.96
2022-12-25T11:30:15.980Z,11.93
2022-12-25T11:35:22.019Z,11.94
2022-12-25T11:40:38.113Z,11.99
2022-12-25T11:45:55.431Z,12.03
2022-12-25T11:51:09.042Z,12.02
2022-12-25T11:56:21.181Z,12.05
2022-12-25T12:01:48.423Z,12.07
2022-12-25T12:07:05.876Z,12.14
2022-12-25T12:12:20.334Z,12.21
2022-12-25T12:17:25.830Z,12.32
2022-12-25T12:22:42.161Z,12.44
2022-12-25T12:28:02.902Z,12.53
2022-12-25T12:33:21.644Z,12.57
2022-12-25T12:38:32.190Z,12.62
2022-12-25T12:43:45.427Z,12.67
2022-12-25T12:48:52.223Z,12.67
2022-12-25T12:54:28.313Z,12.69
2022-12-25T12:59:47.645Z,12.72
2022-12-25T13:05:07.974Z,12.71
2022-12-25T13:10:29.856Z,12.61
2022-12-25T13:15:40.967Z,12.65
2022-12-25T13:20:55.421Z,12.55
2022-12-25T13:26:02.850Z,12.55
2022-12-25T13:31:37.871Z,12.56
2022-12-25T13:36:52.818Z,12.47
2022-12-25T13:42:11.031Z,12.49
2022-12-25T13:47:23.305Z,12.51
2022-12-25T13:52:40.647Z,12.54
2022-12-25T13:57:59.362Z,12.53
2022-12-25T14:03:08.250Z,12.51
2022-12-25T14:08:29.143Z,12.52
2022-12-25T14:13:42.577Z,12.49
2022-12-25T14:19:01.477Z,12.48
2022-12-25T14:24:15.656Z,12.47
2022-12-25T14:29:28.180Z,12.36
2022-12-25T14:34:40.187Z,12.32
2022-12-25T14:39:53.651Z,12.27
2022-12-25T14:45:01.031Z,12.18
2022-12-25T14:50:16.276Z,12.13
2022-12-25T14:55:27.180Z,12.08
2022-12-25T15:00:35.773Z,12.04
2022-12-25T15:05:47.714Z,11.98
2022-12-25T15:11:00.521Z,11.98
2022-12-25T15:16:17.029Z,11.98
2022-12-25T15:21:33.875Z,11.97
2022-12-25T15:26:40.920Z,11.94
2022-12-25T15:31:45.494Z,11.95
2022-12-25T15:36:49.342Z,11.95
2022-12-25T15:42:12.956Z,11.94
2022-12-25T15:47:20.298Z,11.92
2022-12-25T15:52:25.744Z,11.89
2022-12-25T15:57:36.054Z,11.88
2022-12-25T16:02:49.536Z,11.84
2022-12-25T16:07:55.358Z,11.82
2022-12-25T16:13:01.056Z,11.72
2022-12-25T16:18:05.790Z,11.68
2022-12-25T16:23:12.732Z,11.71
2022-12-25T16:28:20.061Z,11.66
2022-12-25T16:33:25.500Z,11.60
2022-12-25T16:38:32.201Z,11.56
2022-12-25T16:43:40.003Z,11.56
2022-12-25T16:48:45.770Z,11.52
2022-12-25T16:53:52.229Z,11.54
2022-12-25T16:59:01.294Z,11.45
2022-12-25T17:04:08.022Z,11.42
2022-12-25T17:09:20.675Z,11.41
2022-12-25T17:14:31.236Z,11.38
2022-12-25T17:19:37.590Z,11.38
2022-12-25T17:24:44.427Z,11.41
2022-12-25T17:29:53.376Z,11.45
2022-12-25T17:35:22.625Z,11.49
2022-12-25T17:40:35.438Z,11.53
2022-12-25T17:45:45.239Z,11.57
2022-12-25T17:50:53.505Z,11.56
2022-12-25T17:56:03.787Z,11.56
2022-12-25T18:01:17.969Z,11.55
2022-12-25T18:06:26.149Z,11.54
2022-12-25T18:11:56.919Z,11.57
2022-12-25T18:17:15.023Z,11.55
2022-12-25T18:22:23.532Z,11.57
2022-12-25T18:27:33.316Z,11.58
2022-12-25T18:32:47.389Z,11.58
2022-12-25T18:38:06.072Z,11.67
2022-12-25T18:43:54.372Z,11.70
2022-12-25T18:49:01.375Z,11.74
2022-12-25T18:54:08.937Z,11.78
2022-12-25T18:59:32.379Z,11.82
2022-12-25T19:04:40.309Z,11.83
2022-12-25T19:10:04.312Z,11.90
2022-12-25T19:15:16.017Z,11.92
2022-12-25T19:20:25.854Z,11.98
2022-12-25T19:25:33.553Z,12.02
2022-12-25T19:30:43.734Z,12.03
2022-12-25T19:36:00.043Z,12.08
2022-12-25T19:41:12.347Z,12.10
2022-12-25T19:46:29.626Z,12.10
2022-12-25T19:51:40.990Z,12.15
2022-12-25T19:56:46.651Z,12.16
2022-12-25T20:01:55.585Z,12.21
2022-12-25T20:07:07.674Z,12.27
2022-12-25T20:12:15.297Z,12.31
2022-12-25T20:17:22.613Z,12.34
2022-12-25T20:22:32.846Z,12.36
2022-12-25T20:27:38.304Z,12.38
2022-12-25T20:32:48.117Z,12.40
2022-12-25T20:38:02.263Z,12.43
2022-12-25T20:43:11.894Z,12.47
2022-12-25T20:48:20.318Z,12.51
2022-12-25T20:53:27.934Z,12.54
2022-12-25T20:58:37.557Z,12.57
2022-12-25T21:03:43.434Z,12.61
2022-12-25T21:08:52.433Z,12.64
2022-12-25T21:13:59.944Z,12.67
2022-12-25T21:19:11.305Z,12.70
2022-12-25T21:24:21.747Z,12.74
2022-12-25T21:29:27.132Z,12.74
2022-12-25T21:34:39.252Z,12.76
2022-12-25T21:39:46.497Z,12.74
2022-12-25T21:44:52.168Z,12.74
2022-12-25T21:50:14.407Z,12.77
2022-12-25T21:55:28.078Z,12.79
2022-12-25T22:00:37.880Z,12.83
2022-12-25T22:06:23.083Z,12.86
2022-12-25T22:11:54.818Z,12.88
2022-12-25T22:17:19.126Z,12.87
2022-12-25T22:22:27.092Z,12.88
2022-12-25T22:27:49.559Z,12.89
2022-12-25T22:32:55.933Z,12.87
2022-12-25T22:38:05.469Z,12.87
2022-12-25T22:43:16.440Z,12.88
2022-12-25T22:48:22.017Z,12.90
2022-12-25T22:53:27.816Z,12.92
2022-12-25T22:58:34.167Z,12.93
2022-12-25T23:03:44.302Z,12.90
2022-12-25T23:08:50.231Z,12.86
2022-12-25T23:14:16.392Z,12.83
2022-12-25T23:19:37.791Z,12.80
2022-12-25T23:24:59.124Z,12.78
2022-12-25T23:30:16.773Z,12.75
2022-12-25T23:35:22.944Z,12.66
2022-12-25T23:40:30.988Z,12.64
2022-12-25T23:45:39.430Z,12.58
2022-12-25T23:50:42.914Z,12.50
2022-12-25T23:55:55.026Z,12.46
